Accueil
METAR-TAF:

METAR-TAF

Aéroports :

Bolzano, Italie

latitude: 46-28N, longitude: 011-20E, altitude: 262 m

Observation

Le bulletin a été fait il y a 57 minutes, à 16:50 UTC
Vent 8 kt de nord, variant entre ouest et nord/nord-est
Température 11°C
Humidité 30%
Pression 1024 hPa
Visibilité 10 km ou plus
pas de nuages en-dessous de 1500 mètres et pas de cumulonimbus.

METAR: LIPB 221650Z 01008KT 270V030 CAVOK 11/M06 Q1024 RMK MON LIB

Heure: 18:47 (17:47 UTC)

Prévision

Le bulletin a été fait il y a 47 minutes, à 17:00 UTC
Prévision valable du 22 à 18 UTC au 23 à 18 UTC
Vent 5 kt de direction variable
Visibilité 10 km ou plus
pas de nuages en-dessous de 1500 mètres et pas de cumulonimbus.

TAF: LIPB 221700Z 2218/2318 VRB05KT CAVOK

Observations et prévisions météorologiques de plus de 4000 aéroports (messages METAR et TAF).

Les stations disponibles sont représentées par des disques jaunes et rouges sur la carte.

Passer la souris dessus pour voir le nom de la station.

Cliquer dessus pour voir les observations et prévisions météorologiques.

Pour changer de carte: cliquez sur les boutons verts avec une croix noire pour zoomer, sur le bouton vert avec un tiret pour effectuer un zoom arrière, ou sur les flèches vertes pour les cartes adjacentes.


METAR-TAF: